Terminal Aerodrome Forecast
Issued by NWS Charleston, WV

Current Version | Previous Version | Graphics & Text | Print | Product List | Glossary On
Versions: 1 2 3 4 5 6 7 8 9 10 11 12 13 14 15 16 17 18 19 20 21 22 23
000
FTUS41 KRLX 271139
TAFPKB
TAF
KPKB 271139Z 2712/2812 00000KT 4SM BR SCT001
     FM271300 13005KT P6SM FEW040 FEW200
     FM280800 00000KT 5SM BR FEW200=

USA.gov is the U.S. government's official web portal to all federal, state and local government web resources and services.